createdAt,value
2019-02-06T00:02:26.502Z,2.80
2019-02-06T00:05:43.342Z,4.53
2019-02-06T00:08:50.651Z,3.73
2019-02-06T00:12:14.215Z,3.97
2019-02-06T00:15:31.239Z,3.67
2019-02-06T00:18:47.764Z,3.50
2019-02-06T00:21:54.987Z,3.63
2019-02-06T00:25:02.192Z,3.37
2019-02-06T00:28:10.705Z,4.40
2019-02-06T00:31:17.845Z,4.40
2019-02-06T00:34:25.293Z,2.50
2019-02-06T00:37:32.554Z,3.73
2019-02-06T00:40:49.277Z,2.63
2019-02-06T00:43:54.772Z,4.03
2019-02-06T00:47:02.083Z,2.97
2019-02-06T00:50:10.735Z,4.20
2019-02-06T00:53:18.139Z,3.20
2019-02-06T00:56:24.765Z,3.13
2019-02-06T00:59:31.963Z,3.90
2019-02-06T01:02:39.255Z,3.07
2019-02-06T01:05:46.452Z,4.00
2019-02-06T01:08:53.693Z,2.87
2019-02-06T01:12:00.990Z,3.90
2019-02-06T01:15:18.274Z,2.80
2019-02-06T01:18:34.967Z,3.90
2019-02-06T01:21:42.164Z,4.30
2019-02-06T01:24:58.933Z,3.60
2019-02-06T01:28:06.132Z,3.53
2019-02-06T01:31:21.315Z,2.13
2019-02-06T01:34:28.585Z,3.70
2019-02-06T01:37:35.968Z,3.80
2019-02-06T01:40:52.497Z,2.17
2019-02-06T01:43:59.479Z,1.37
2019-02-06T01:47:06.684Z,4.30
2019-02-06T01:50:15.151Z,4.97
2019-02-06T01:53:32.526Z,3.90
2019-02-06T01:56:49.204Z,4.20
2019-02-06T01:59:56.363Z,4.13
2019-02-06T02:03:03.759Z,3.63
2019-02-06T02:06:26.366Z,3.93
2019-02-06T02:09:43.156Z,3.90
2019-02-06T02:12:59.879Z,3.50
2019-02-06T02:16:07.146Z,3.17
2019-02-06T02:19:14.561Z,3.87
2019-02-06T02:22:31.384Z,3.87
2019-02-06T02:25:38.750Z,4.00
2019-02-06T02:28:55.408Z,3.50
2019-02-06T02:32:12.201Z,2.57
2019-02-06T02:35:19.478Z,2.90
2019-02-06T02:38:36.069Z,3.90
2019-02-06T02:41:43.247Z,3.43
2019-02-06T02:44:50.477Z,3.60
2019-02-06T02:48:07.348Z,4.13
2019-02-06T02:51:24.042Z,3.57
2019-02-06T02:54:31.244Z,2.73
2019-02-06T02:57:48.161Z,3.73
2019-02-06T03:01:22.734Z,3.27
2019-02-06T03:04:37.449Z,3.17
2019-02-06T03:07:45.043Z,3.47
2019-02-06T03:11:01.576Z,4.07
2019-02-06T03:14:18.363Z,4.27
2019-02-06T03:17:35.116Z,2.90
2019-02-06T03:20:42.582Z,4.33
2019-02-06T03:23:59.053Z,5.27
2019-02-06T03:27:06.455Z,4.13
2019-02-06T03:30:22.981Z,2.97
2019-02-06T03:33:30.418Z,4.47
2019-02-06T03:36:47.010Z,3.80
2019-02-06T03:40:03.794Z,5.27
2019-02-06T03:43:20.736Z,4.23
2019-02-06T03:46:37.466Z,4.13
2019-02-06T03:49:43.060Z,3.87
2019-02-06T03:52:59.651Z,4.83
2019-02-06T03:56:06.929Z,3.43
2019-02-06T03:59:14.161Z,5.20
2019-02-06T04:02:30.713Z,5.27
2019-02-06T04:05:36.867Z,4.53
2019-02-06T04:08:44.173Z,4.90
2019-02-06T04:11:51.294Z,5.57
2019-02-06T04:15:08.321Z,2.97
2019-02-06T04:18:15.534Z,4.90
2019-02-06T04:21:22.841Z,3.30
2019-02-06T04:24:30.129Z,3.67
2019-02-06T04:27:37.425Z,3.63
2019-02-06T04:30:44.556Z,3.10
2019-02-06T04:33:51.677Z,5.30
2019-02-06T04:37:06.788Z,3.40
2019-02-06T04:40:14.746Z,4.13
2019-02-06T04:43:22.166Z,4.33
2019-02-06T04:46:38.685Z,4.47
2019-02-06T04:49:45.956Z,3.50
2019-02-06T04:53:02.628Z,3.80
2019-02-06T04:56:19.471Z,3.80
2019-02-06T04:59:26.627Z,5.03
2019-02-06T05:02:33.847Z,6.60
2019-02-06T05:05:41.174Z,3.87
2019-02-06T05:08:57.886Z,5.23
2019-02-06T05:12:14.527Z,5.10
2019-02-06T05:15:21.925Z,3.83
2019-02-06T05:18:38.485Z,5.90
2019-02-06T05:21:45.766Z,5.07
2019-02-06T05:25:02.590Z,4.90
2019-02-06T05:28:19.352Z,4.87
2019-02-06T05:31:26.556Z,5.07
2019-02-06T05:34:33.729Z,3.13
2019-02-06T05:37:40.930Z,4.60
2019-02-06T05:40:48.105Z,4.50
2019-02-06T05:43:55.416Z,4.37
2019-02-06T05:47:03.067Z,4.73
2019-02-06T05:50:11.154Z,4.33
2019-02-06T05:53:28.386Z,5.10
2019-02-06T05:56:44.821Z,4.37
2019-02-06T05:59:52.020Z,3.30
2019-02-06T06:03:08.978Z,5.73
2019-02-06T06:06:25.723Z,5.90
2019-02-06T06:09:42.326Z,3.20
2019-02-06T06:12:49.653Z,3.87
2019-02-06T06:16:06.365Z,4.10
2019-02-06T06:19:13.650Z,5.40
2019-02-06T06:22:30.350Z,4.90
2019-02-06T06:25:37.555Z,5.87
2019-02-06T06:28:54.254Z,6.10
2019-02-06T06:32:01.556Z,3.73
2019-02-06T06:35:18.278Z,3.77
2019-02-06T06:38:34.956Z,5.53
2019-02-06T06:41:42.477Z,4.80
2019-02-06T06:44:59.036Z,3.17
2019-02-06T06:48:15.699Z,4.00
2019-02-06T06:51:22.832Z,5.17
2019-02-06T06:54:29.954Z,4.23
2019-02-06T06:57:37.257Z,3.97
2019-02-06T07:00:44.491Z,4.83
2019-02-06T07:03:51.708Z,4.63
2019-02-06T07:06:58.865Z,4.97
2019-02-06T07:10:06.974Z,4.17
2019-02-06T07:13:14.155Z,3.93
2019-02-06T07:16:21.477Z,4.23
2019-02-06T07:19:28.815Z,3.60
2019-02-06T07:22:36.128Z,4.03
2019-02-06T07:25:43.460Z,4.73
2019-02-06T07:28:50.705Z,4.37
2019-02-06T07:31:57.967Z,3.60
2019-02-06T07:35:05.744Z,5.30
2019-02-06T07:38:24.434Z,3.90
2019-02-06T07:41:30.950Z,3.97
2019-02-06T07:44:38.677Z,4.47
2019-02-06T07:47:46.116Z,3.70
2019-02-06T07:50:53.378Z,4.10
2019-02-06T07:54:00.611Z,4.13
2019-02-06T07:57:07.839Z,4.43
2019-02-06T08:00:15.117Z,3.80
2019-02-06T08:03:22.410Z,3.70
2019-02-06T08:06:29.545Z,4.73
2019-02-06T08:09:36.748Z,3.53
2019-02-06T08:12:44.248Z,3.63
2019-02-06T08:15:51.458Z,4.67
2019-02-06T08:18:58.882Z,2.87
2019-02-06T08:22:06.079Z,3.93
2019-02-06T08:25:23.092Z,3.60
2019-02-06T08:28:39.722Z,3.77
2019-02-06T08:31:46.854Z,3.07
2019-02-06T08:34:54.059Z,4.17
2019-02-06T08:38:01.434Z,4.57
2019-02-06T08:41:17.976Z,3.37
2019-02-06T08:44:25.277Z,3.17
2019-02-06T08:47:32.503Z,4.20
2019-02-06T08:50:49.216Z,3.33
2019-02-06T08:54:06.220Z,5.93
2019-02-06T08:57:22.950Z,4.43
2019-02-06T09:00:40.022Z,4.87
2019-02-06T09:03:47.657Z,3.07
2019-02-06T09:06:54.930Z,3.10
2019-02-06T09:10:02.205Z,4.00
2019-02-06T09:13:09.751Z,3.97
2019-02-06T09:16:17.169Z,2.77
2019-02-06T09:19:24.364Z,3.97
2019-02-06T09:22:31.506Z,4.07
2019-02-06T09:25:48.941Z,4.63
2019-02-06T09:29:05.838Z,2.87
2019-02-06T09:32:22.401Z,3.50
2019-02-06T09:35:29.748Z,3.87
2019-02-06T09:38:46.590Z,3.43
2019-02-06T09:41:53.965Z,3.83
2019-02-06T09:45:11.704Z,4.10
2019-02-06T09:48:18.910Z,2.73
2019-02-06T09:51:26.176Z,3.73
2019-02-06T09:54:33.370Z,5.17
2019-02-06T09:57:40.652Z,4.17
2019-02-06T10:00:47.926Z,4.23
2019-02-06T10:03:55.210Z,4.33
2019-02-06T10:07:02.410Z,2.80
2019-02-06T10:10:18.693Z,3.83
2019-02-06T10:13:25.978Z,4.63
2019-02-06T10:16:33.110Z,3.70
2019-02-06T10:19:42.435Z,3.93
2019-02-06T10:22:49.250Z,2.63
2019-02-06T10:25:56.449Z,4.03
2019-02-06T10:29:04.411Z,3.37
2019-02-06T10:32:20.920Z,4.37
2019-02-06T10:35:28.591Z,3.53
2019-02-06T10:38:44.941Z,2.47
2019-02-06T10:42:01.741Z,3.90
2019-02-06T10:45:21.043Z,2.63
2019-02-06T10:48:37.132Z,3.03
2019-02-06T10:51:44.268Z,3.37
2019-02-06T10:54:51.539Z,3.13
2019-02-06T10:57:58.768Z,4.33
2019-02-06T11:01:06.203Z,3.40
2019-02-06T11:04:32.728Z,3.67
2019-02-06T11:07:39.943Z,3.20
2019-02-06T11:10:47.245Z,3.90
2019-02-06T11:14:04.101Z,3.17
2019-02-06T11:17:20.712Z,2.73
2019-02-06T11:20:28.569Z,2.23
2019-02-06T11:23:35.773Z,3.00
2019-02-06T11:26:42.970Z,3.37
2019-02-06T11:29:48.669Z,3.50
2019-02-06T11:32:55.825Z,3.27
2019-02-06T11:36:03.069Z,3.80
2019-02-06T11:39:18.389Z,3.10
2019-02-06T11:42:25.587Z,2.07
2019-02-06T11:45:33.082Z,3.73
2019-02-06T11:48:43.274Z,2.97
2019-02-06T11:51:49.404Z,3.63
2019-02-06T11:54:56.621Z,2.63
2019-02-06T11:58:04.116Z,3.90
2019-02-06T12:01:24.542Z,2.40
2019-02-06T12:04:32.075Z,3.63
2019-02-06T12:07:39.533Z,3.63
2019-02-06T12:10:47.278Z,3.10
2019-02-06T12:14:03.936Z,2.47
2019-02-06T12:17:21.116Z,2.47
2019-02-06T12:20:37.567Z,3.33
2019-02-06T12:23:54.212Z,2.47
2019-02-06T12:27:01.477Z,3.13
2019-02-06T12:30:22.106Z,1.93
2019-02-06T12:33:29.464Z,2.40
2019-02-06T12:36:36.667Z,2.13
2019-02-06T12:39:43.863Z,3.13
2019-02-06T12:42:51.053Z,2.37
2019-02-06T12:45:58.258Z,2.47
2019-02-06T12:49:05.703Z,3.43
2019-02-06T12:52:12.921Z,1.90
2019-02-06T12:55:22.841Z,2.13
2019-02-06T12:58:30.111Z,2.23
2019-02-06T13:01:37.321Z,2.63
2019-02-06T13:04:44.532Z,2.17
2019-02-06T13:07:51.810Z,3.23
2019-02-06T13:10:58.941Z,2.37
2019-02-06T13:14:06.242Z,2.23
2019-02-06T13:17:13.510Z,1.93
2019-02-06T13:20:23.046Z,2.57
2019-02-06T13:23:30.177Z,2.40
2019-02-06T13:26:46.927Z,2.23
2019-02-06T13:29:54.066Z,2.43
2019-02-06T13:33:01.263Z,1.97
2019-02-06T13:36:10.130Z,3.00
2019-02-06T13:39:17.331Z,2.67
2019-02-06T13:42:24.541Z,2.40
2019-02-06T13:45:34.423Z,2.43
2019-02-06T13:48:41.560Z,2.97
2019-02-06T13:51:48.684Z,3.13
2019-02-06T13:54:55.788Z,2.43
2019-02-06T13:58:03.054Z,2.63
2019-02-06T14:01:10.252Z,3.00
2019-02-06T14:04:17.448Z,2.37
2019-02-06T14:07:24.472Z,2.67
2019-02-06T14:10:31.590Z,2.87
2019-02-06T14:13:38.890Z,2.47
2019-02-06T14:16:46.189Z,2.00
2019-02-06T14:19:53.466Z,2.57
2019-02-06T14:23:12.998Z,2.80
2019-02-06T14:26:25.464Z,3.43
2019-02-06T14:30:06.195Z,3.70
2019-02-06T14:33:58.012Z,2.80
2019-02-06T14:37:20.938Z,3.40
2019-02-06T14:40:49.619Z,2.07
2019-02-06T14:44:39.378Z,2.77
2019-02-06T14:48:33.461Z,3.10
2019-02-06T14:52:18.590Z,3.47
2019-02-06T14:56:03.866Z,2.73
2019-02-06T14:59:52.608Z,3.23
2019-02-06T15:03:50.025Z,2.80
2019-02-06T15:07:13.372Z,1.83
2019-02-06T15:11:05.498Z,2.43
2019-02-06T15:14:41.857Z,1.73
2019-02-06T15:18:45.601Z,3.00
2019-02-06T15:22:39.765Z,2.20
2019-02-06T15:26:18.483Z,3.20
2019-02-06T15:29:42.525Z,3.20
2019-02-06T15:33:24.608Z,2.87
2019-02-06T15:37:17.545Z,1.93
2019-02-06T15:40:56.497Z,3.80
2019-02-06T15:44:28.442Z,2.30
2019-02-06T15:48:06.967Z,3.30
2019-02-06T15:52:05.099Z,3.03
2019-02-06T15:55:39.804Z,2.60
2019-02-06T15:59:18.344Z,2.03
2019-02-06T16:02:37.123Z,3.10
2019-02-06T16:06:17.859Z,2.47
2019-02-06T16:09:48.475Z,1.83
2019-02-06T16:13:22.003Z,3.07
2019-02-06T16:17:04.943Z,3.23
2019-02-06T16:21:03.021Z,3.57
2019-02-06T16:24:53.194Z,2.77
2019-02-06T16:28:42.779Z,3.33
2019-02-06T16:32:03.873Z,3.40
2019-02-06T16:35:46.515Z,3.43
2019-02-06T16:39:14.705Z,3.70
2019-02-06T16:43:18.866Z,4.77
2019-02-06T16:47:09.698Z,4.37
2019-02-06T16:50:55.536Z,4.47
2019-02-06T16:54:29.775Z,4.77
2019-02-06T16:58:26.524Z,5.13
2019-02-06T17:02:19.651Z,4.13
2019-02-06T17:06:26.092Z,4.57
2019-02-06T17:10:03.709Z,2.93
2019-02-06T17:14:04.091Z,4.60
2019-02-06T17:17:42.165Z,4.30
2019-02-06T17:21:21.378Z,4.17
2019-02-06T17:24:59.863Z,5.23
2019-02-06T17:28:42.383Z,4.63
2019-02-06T17:32:38.614Z,3.17
2019-02-06T17:36:03.233Z,5.03
2019-02-06T17:39:43.585Z,4.37
2019-02-06T17:43:22.623Z,5.07
2019-02-06T17:47:08.724Z,5.53
2019-02-06T17:50:37.945Z,4.67
2019-02-06T17:54:23.225Z,4.50
2019-02-06T17:57:30.538Z,3.33
2019-02-06T18:01:12.120Z,5.17
2019-02-06T18:04:25.339Z,5.23
2019-02-06T18:07:33.152Z,6.13
2019-02-06T18:10:40.462Z,5.03
2019-02-06T18:13:47.034Z,6.90
2019-02-06T18:17:03.997Z,5.33
2019-02-06T18:20:14.242Z,5.17
2019-02-06T18:23:30.661Z,6.43
2019-02-06T18:26:42.457Z,6.47
2019-02-06T18:29:49.735Z,6.80
2019-02-06T18:33:07.026Z,6.23
2019-02-06T18:36:23.789Z,7.07
2019-02-06T18:39:40.499Z,6.37
2019-02-06T18:42:47.783Z,7.43
2019-02-06T18:46:04.913Z,6.00
2019-02-06T18:49:12.870Z,7.23
2019-02-06T18:52:20.845Z,6.60
2019-02-06T18:55:37.343Z,6.77
2019-02-06T18:58:53.945Z,6.30
2019-02-06T19:02:10.732Z,6.10
2019-02-06T19:05:18.901Z,8.43
2019-02-06T19:08:26.162Z,8.60
2019-02-06T19:11:33.275Z,6.23
2019-02-06T19:14:40.611Z,8.00
2019-02-06T19:17:46.921Z,6.73
2019-02-06T19:21:03.411Z,7.47
2019-02-06T19:24:11.271Z,6.13
2019-02-06T19:27:18.602Z,6.90
2019-02-06T19:30:30.748Z,6.57
2019-02-06T19:33:37.878Z,7.17
2019-02-06T19:36:45.112Z,5.83
2019-02-06T19:39:52.472Z,6.63
2019-02-06T19:43:02.460Z,6.03
2019-02-06T19:46:08.681Z,8.33
2019-02-06T19:49:14.885Z,8.00
2019-02-06T19:52:31.489Z,6.50
2019-02-06T19:55:48.221Z,5.40
2019-02-06T19:59:05.385Z,6.97
2019-02-06T20:02:21.720Z,5.43
2019-02-06T20:05:29.025Z,5.30
2019-02-06T20:08:47.609Z,4.50
2019-02-06T20:12:04.492Z,5.67
2019-02-06T20:15:21.284Z,4.03
2019-02-06T20:18:28.605Z,4.17
2019-02-06T20:21:45.104Z,6.07
2019-02-06T20:24:52.334Z,5.43
2019-02-06T20:27:59.458Z,4.47
2019-02-06T20:31:06.808Z,4.87
2019-02-06T20:34:14.082Z,3.73
2019-02-06T20:37:21.696Z,4.27
2019-02-06T20:40:38.164Z,5.23
2019-02-06T20:43:54.718Z,3.57
2019-02-06T20:47:11.525Z,3.57
2019-02-06T20:50:29.871Z,5.60
2019-02-06T20:53:46.660Z,4.43
2019-02-06T20:56:53.823Z,3.43
2019-02-06T21:00:00.541Z,3.90
2019-02-06T21:03:07.825Z,5.20
2019-02-06T21:06:15.020Z,4.70
2019-02-06T21:09:22.216Z,4.63
2019-02-06T21:12:29.344Z,4.13
2019-02-06T21:15:36.853Z,4.60
2019-02-06T21:18:44.327Z,5.23
2019-02-06T21:21:51.586Z,6.23
2019-02-06T21:25:09.735Z,6.43
2019-02-06T21:28:26.594Z,6.20
2019-02-06T21:31:43.795Z,6.23
2019-02-06T21:35:00.156Z,5.57
2019-02-06T21:38:07.450Z,4.40
2019-02-06T21:41:24.113Z,4.47
2019-02-06T21:44:40.821Z,3.93
2019-02-06T21:47:57.745Z,4.17
2019-02-06T21:51:14.404Z,3.80
2019-02-06T21:54:31.169Z,5.20
2019-02-06T21:57:48.022Z,4.23
2019-02-06T22:00:55.143Z,4.00
2019-02-06T22:04:02.271Z,4.00
2019-02-06T22:07:10.749Z,5.20
2019-02-06T22:10:18.152Z,5.53
2019-02-06T22:13:25.377Z,3.77
2019-02-06T22:16:42.301Z,4.37
2019-02-06T22:19:48.388Z,5.70
2019-02-06T22:23:04.739Z,4.47
2019-02-06T22:26:21.466Z,4.83
2019-02-06T22:29:38.202Z,5.57
2019-02-06T22:32:45.498Z,5.67
2019-02-06T22:36:02.175Z,5.83
2019-02-06T22:39:11.775Z,7.30
2019-02-06T22:42:18.910Z,5.30
2019-02-06T22:45:27.198Z,6.03
2019-02-06T22:48:43.774Z,5.07
2019-02-06T22:51:50.912Z,5.07
2019-02-06T22:54:58.184Z,7.90
2019-02-06T22:58:05.976Z,5.23
2019-02-06T23:01:33.992Z,4.90
2019-02-06T23:04:51.950Z,5.80
2019-02-06T23:08:08.584Z,6.10
2019-02-06T23:11:25.320Z,6.13
2019-02-06T23:14:32.537Z,5.80
2019-02-06T23:17:39.741Z,5.30
2019-02-06T23:20:56.434Z,5.77
2019-02-06T23:24:13.178Z,6.37
2019-02-06T23:27:29.885Z,4.33
2019-02-06T23:30:37.524Z,5.27
2019-02-06T23:33:53.925Z,5.60
2019-02-06T23:37:01.145Z,5.93
2019-02-06T23:40:09.099Z,5.07
2019-02-06T23:43:16.328Z,6.00
2019-02-06T23:46:23.548Z,6.07
2019-02-06T23:49:30.978Z,6.63
2019-02-06T23:52:38.181Z,6.13
2019-02-06T23:55:45.319Z,5.70
2019-02-06T23:58:52.421Z,5.20
